sensor_id;sensor_type;location;lat;lon;timestamp;pressure;altitude;pressure_sealevel;temperature;humidity
40998;BME280;26740;45.944;12.480;2023-03-22T00:00:53;101195.44;;;11.65;100.00
40998;BME280;26740;45.944;12.480;2023-03-22T00:03:19;101193.25;;;11.67;100.00
40998;BME280;26740;45.944;12.480;2023-03-22T00:05:44;101195.44;;;11.65;100.00
40998;BME280;26740;45.944;12.480;2023-03-22T00:08:10;101192.06;;;11.63;100.00
40998;BME280;26740;45.944;12.480;2023-03-22T00:10:39;101194.22;;;11.61;100.00
40998;BME280;26740;45.944;12.480;2023-03-22T00:13:07;101191.44;;;11.61;100.00
40998;BME280;26740;45.944;12.480;2023-03-22T00:15:33;101192.72;;;11.53;100.00
40998;BME280;26740;45.944;12.480;2023-03-22T00:17:59;101188.28;;;11.52;100.00
40998;BME280;26740;45.944;12.480;2023-03-22T00:20:27;101184.28;;;11.48;100.00
40998;BME280;26740;45.944;12.480;2023-03-22T00:22:55;101185.72;;;11.51;100.00
40998;BME280;26740;45.944;12.480;2023-03-22T00:25:21;101180.19;;;11.51;100.00
40998;BME280;26740;45.944;12.480;2023-03-22T00:27:47;101181.84;;;11.52;100.00
40998;BME280;26740;45.944;12.480;2023-03-22T00:30:13;101177.97;;;11.53;100.00
40998;BME280;26740;45.944;12.480;2023-03-22T00:32:39;101176.13;;;11.58;100.00
40998;BME280;26740;45.944;12.480;2023-03-22T00:35:07;101175.03;;;11.60;100.00
40998;BME280;26740;45.944;12.480;2023-03-22T00:37:34;101173.94;;;11.61;100.00
40998;BME280;26740;45.944;12.480;2023-03-22T00:40:08;101171.91;;;11.56;100.00
40998;BME280;26740;45.944;12.480;2023-03-22T00:42:38;101176.13;;;11.58;100.00
40998;BME280;26740;45.944;12.480;2023-03-22T00:45:06;101170.81;;;11.57;100.00
40998;BME280;26740;45.944;12.480;2023-03-22T00:47:32;101167.94;;;11.52;100.00
40998;BME280;26740;45.944;12.480;2023-03-22T00:49:58;101165.16;;;11.52;100.00
40998;BME280;26740;45.944;12.480;2023-03-22T00:52:24;101165.75;;;11.54;100.00
40998;BME280;26740;45.944;12.480;2023-03-22T00:54:50;101166.03;;;11.52;100.00
40998;BME280;26740;45.944;12.480;2023-03-22T00:57:15;101168.81;;;11.52;100.00
40998;BME280;26740;45.944;12.480;2023-03-22T00:59:42;101163.72;;;11.49;100.00
40998;BME280;26740;45.944;12.480;2023-03-22T01:02:08;101165.06;;;11.47;100.00
40998;BME280;26740;45.944;12.480;2023-03-22T01:04:41;101153.44;;;11.50;100.00
40998;BME280;26740;45.944;12.480;2023-03-22T01:07:16;101154.63;;;11.54;100.00
40998;BME280;26740;45.944;12.480;2023-03-22T01:09:44;101155.22;;;11.56;100.00
40998;BME280;26740;45.944;12.480;2023-03-22T01:12:10;101154.97;;;11.57;100.00
40998;BME280;26740;45.944;12.480;2023-03-22T01:14:36;101142.41;;;11.55;100.00
40998;BME280;26740;45.944;12.480;2023-03-22T01:17:02;101137.94;;;11.54;100.00
40998;BME280;26740;45.944;12.480;2023-03-22T01:19:28;101141.91;;;11.58;100.00
40998;BME280;26740;45.944;12.480;2023-03-22T01:21:54;101139.72;;;11.60;100.00
40998;BME280;26740;45.944;12.480;2023-03-22T01:24:19;101138.59;;;11.61;100.00
40998;BME280;26740;45.944;12.480;2023-03-22T01:26:45;101134.75;;;11.62;100.00
40998;BME280;26740;45.944;12.480;2023-03-22T01:29:11;101136.19;;;11.65;100.00
40998;BME280;26740;45.944;12.480;2023-03-22T01:31:37;101136.78;;;11.67;100.00
40998;BME280;26740;45.944;12.480;2023-03-22T01:34:03;101141.75;;;11.65;100.00
40998;BME280;26740;45.944;12.480;2023-03-22T01:36:28;101143.09;;;11.62;100.00
40998;BME280;26740;45.944;12.480;2023-03-22T01:38:54;101138.59;;;11.61;100.00
40998;BME280;26740;45.944;12.480;2023-03-22T01:41:20;101136.59;;;11.56;100.00
40998;BME280;26740;45.944;12.480;2023-03-22T01:44:18;101137.09;;;11.53;100.00
40998;BME280;26740;45.944;12.480;2023-03-22T01:46:46;101136.34;;;11.58;100.00
40998;BME280;26740;45.944;12.480;2023-03-22T01:49:15;101133.31;;;11.60;100.00
40998;BME280;26740;45.944;12.480;2023-03-22T01:51:44;101125.41;;;11.68;100.00
40998;BME280;26740;45.944;12.480;2023-03-22T01:56:49;101124.63;;;11.73;100.00
40998;BME280;26740;45.944;12.480;2023-03-22T01:59:14;101119.91;;;11.73;100.00
40998;BME280;26740;45.944;12.480;2023-03-22T02:01:40;101119.91;;;11.73;100.00
40998;BME280;26740;45.944;12.480;2023-03-22T02:04:18;101122.09;;;11.71;100.00
40998;BME280;26740;45.944;12.480;2023-03-22T02:06:50;101117.63;;;11.70;100.00
40998;BME280;26740;45.944;12.480;2023-03-22T02:09:18;101121.25;;;11.71;100.00
40998;BME280;26740;45.944;12.480;2023-03-22T02:12:02;101117.63;;;11.70;100.00
40998;BME280;26740;45.944;12.480;2023-03-22T02:14:39;101116.53;;;11.71;100.00
40998;BME280;26740;45.944;12.480;2023-03-22T02:33:56;101117.53;;;11.82;100.00
40998;BME280;26740;45.944;12.480;2023-03-22T02:39:16;101113.91;;;11.82;100.00
40998;BME280;26740;45.944;12.480;2023-03-22T02:42:05;101122.88;;;11.67;100.00
40998;BME280;26740;45.944;12.480;2023-03-22T02:47:58;101115.59;;;11.66;100.00
40998;BME280;26740;45.944;12.480;2023-03-22T02:53:02;101109.44;;;11.47;100.00
40998;BME280;26740;45.944;12.480;2023-03-22T02:55:33;101100.25;;;11.29;100.00
40998;BME280;26740;45.944;12.480;2023-03-22T02:58:25;101102.88;;;11.19;100.00
40998;BME280;26740;45.944;12.480;2023-03-22T03:00:55;101108.34;;;11.14;100.00
40998;BME280;26740;45.944;12.480;2023-03-22T03:03:26;101098.09;;;11.03;100.00
40998;BME280;26740;45.944;12.480;2023-03-22T03:06:00;101107.47;;;10.96;100.00
40998;BME280;26740;45.944;12.480;2023-03-22T03:08:26;101101.69;;;10.86;100.00
40998;BME280;26740;45.944;12.480;2023-03-22T03:10:53;101102.84;;;10.73;100.00
40998;BME280;26740;45.944;12.480;2023-03-22T03:13:19;101098.16;;;10.62;100.00
40998;BME280;26740;45.944;12.480;2023-03-22T03:15:48;101096.63;;;10.54;100.00
40998;BME280;26740;45.944;12.480;2023-03-22T03:26:17;101101.84;;;10.39;100.00
40998;BME280;26740;45.944;12.480;2023-03-22T03:34:17;101108.28;;;10.04;100.00
40998;BME280;26740;45.944;12.480;2023-03-22T03:37:13;101112.50;;;9.95;100.00
40998;BME280;26740;45.944;12.480;2023-03-22T03:39:51;101114.81;;;9.98;100.00
40998;BME280;26740;45.944;12.480;2023-03-22T03:42:20;101116.81;;;10.14;100.00
40998;BME280;26740;45.944;12.480;2023-03-22T03:44:47;101117.34;;;9.87;100.00
40998;BME280;26740;45.944;12.480;2023-03-22T03:47:13;101124.09;;;9.80;100.00
40998;BME280;26740;45.944;12.480;2023-03-22T03:49:40;101120.84;;;9.71;100.00
40998;BME280;26740;45.944;12.480;2023-03-22T03:52:06;101128.19;;;9.77;100.00
40998;BME280;26740;45.944;12.480;2023-03-22T03:54:32;101132.78;;;9.83;100.00
40998;BME280;26740;45.944;12.480;2023-03-22T03:56:57;101133.72;;;9.77;100.00
40998;BME280;26740;45.944;12.480;2023-03-22T03:59:23;101122.88;;;9.76;100.00
40998;BME280;26740;45.944;12.480;2023-03-22T04:01:49;101125.28;;;9.72;100.00
40998;BME280;26740;45.944;12.480;2023-03-22T04:04:22;101120.22;;;9.69;100.00
40998;BME280;26740;45.944;12.480;2023-03-22T04:06:58;101127.91;;;9.67;100.00
40998;BME280;26740;45.944;12.480;2023-03-22T04:09:25;101126.50;;;9.64;100.00
40998;BME280;26740;45.944;12.480;2023-03-22T04:11:53;101125.66;;;9.64;100.00
40998;BME280;26740;45.944;12.480;2023-03-22T04:14:19;101125.06;;;9.62;100.00
40998;BME280;26740;45.944;12.480;2023-03-22T04:16:45;101115.63;;;9.63;100.00
40998;BME280;26740;45.944;12.480;2023-03-22T04:19:11;101119.75;;;9.60;100.00
40998;BME280;26740;45.944;12.480;2023-03-22T04:21:37;101118.16;;;9.53;100.00
40998;BME280;26740;45.944;12.480;2023-03-22T04:24:03;101118.88;;;9.48;100.00
40998;BME280;26740;45.944;12.480;2023-03-22T04:26:29;101118.38;;;9.39;100.00
40998;BME280;26740;45.944;12.480;2023-03-22T04:28:55;101114.88;;;9.44;100.00
40998;BME280;26740;45.944;12.480;2023-03-22T04:31:23;101126.09;;;9.37;100.00
40998;BME280;26740;45.944;12.480;2023-03-22T04:33:49;101123.66;;;9.29;100.00
40998;BME280;26740;45.944;12.480;2023-03-22T04:36:20;101125.47;;;9.23;100.00
40998;BME280;26740;45.944;12.480;2023-03-22T04:38:45;101125.09;;;9.32;100.00
40998;BME280;26740;45.944;12.480;2023-03-22T04:41:11;101120.47;;;9.14;100.00
40998;BME280;26740;45.944;12.480;2023-03-22T04:43:37;101123.47;;;9.00;100.00
40998;BME280;26740;45.944;12.480;2023-03-22T04:46:07;101125.81;;;8.85;100.00
40998;BME280;26740;45.944;12.480;2023-03-22T04:48:38;101121.06;;;8.73;100.00
40998;BME280;26740;45.944;12.480;2023-03-22T04:51:06;101122.13;;;8.72;100.00
40998;BME280;26740;45.944;12.480;2023-03-22T04:53:32;101128.59;;;8.66;100.00
40998;BME280;26740;45.944;12.480;2023-03-22T04:56:08;101128.06;;;8.58;100.00
40998;BME280;26740;45.944;12.480;2023-03-22T04:58:36;101124.16;;;8.47;100.00
40998;BME280;26740;45.944;12.480;2023-03-22T05:01:03;101122.00;;;8.30;100.00
40998;BME280;26740;45.944;12.480;2023-03-22T05:03:29;101119.22;;;8.30;100.00
40998;BME280;26740;45.944;12.480;2023-03-22T05:06:00;101123.06;;;8.29;100.00
40998;BME280;26740;45.944;12.480;2023-03-22T05:08:28;101123.84;;;8.18;100.00
40998;BME280;26740;45.944;12.480;2023-03-22T05:10:56;101125.81;;;8.11;100.00
40998;BME280;26740;45.944;12.480;2023-03-22T05:13:24;101125.22;;;8.09;100.00
40998;BME280;26740;45.944;12.480;2023-03-22T05:15:50;101125.22;;;8.09;100.00
40998;BME280;26740;45.944;12.480;2023-03-22T05:18:18;101130.81;;;8.02;100.00
40998;BME280;26740;45.944;12.480;2023-03-22T05:20:49;101130.13;;;8.07;100.00
40998;BME280;26740;45.944;12.480;2023-03-22T05:23:15;101130.59;;;8.04;100.00
40998;BME280;26740;45.944;12.480;2023-03-22T05:25:44;101128.31;;;7.94;100.00
40998;BME280;26740;45.944;12.480;2023-03-22T05:28:12;101139.34;;;8.01;100.00
40998;BME280;26740;45.944;12.480;2023-03-22T05:30:40;101138.50;;;8.19;100.00
40998;BME280;26740;45.944;12.480;2023-03-22T05:33:06;101136.81;;;8.36;100.00
40998;BME280;26740;45.944;12.480;2023-03-22T05:35:34;101141.34;;;8.30;100.00
40998;BME280;26740;45.944;12.480;2023-03-22T05:38:00;101149.03;;;8.28;100.00
40998;BME280;26740;45.944;12.480;2023-03-22T05:40:26;101141.41;;;8.49;100.00
40998;BME280;26740;45.944;12.480;2023-03-22T05:42:52;101146.22;;;8.72;100.00
40998;BME280;26740;45.944;12.480;2023-03-22T05:45:19;101155.44;;;8.84;100.00
40998;BME280;26740;45.944;12.480;2023-03-22T05:47:46;101152.31;;;8.92;100.00
40998;BME280;26740;45.944;12.480;2023-03-22T05:50:17;101151.81;;;9.14;100.00
40998;BME280;26740;45.944;12.480;2023-03-22T05:52:43;101150.09;;;9.67;100.00
40998;BME280;26740;45.944;12.480;2023-03-22T05:55:12;101157.38;;;10.27;100.00
40998;BME280;26740;45.944;12.480;2023-03-22T05:57:40;101161.53;;;10.77;100.00
40998;BME280;26740;45.944;12.480;2023-03-22T06:00:08;101163.06;;;11.13;100.00
40998;BME280;26740;45.944;12.480;2023-03-22T06:02:42;101165.69;;;11.20;100.00
40998;BME280;26740;45.944;12.480;2023-03-22T06:05:09;101170.63;;;11.47;100.00
40998;BME280;26740;45.944;12.480;2023-03-22T06:07:36;101171.41;;;11.42;100.00
40998;BME280;26740;45.944;12.480;2023-03-22T06:10:03;101179.03;;;11.81;100.00
40998;BME280;26740;45.944;12.480;2023-03-22T06:12:30;101176.31;;;12.59;100.00
40998;BME280;26740;45.944;12.480;2023-03-22T06:14:55;101174.44;;;13.36;100.00
40998;BME280;26740;45.944;12.480;2023-03-22T06:17:21;101185.28;;;13.92;100.00
40998;BME280;26740;45.944;12.480;2023-03-22T06:19:48;101184.50;;;14.39;100.00
40998;BME280;26740;45.944;12.480;2023-03-22T06:22:14;101181.34;;;14.73;100.00
40998;BME280;26740;45.944;12.480;2023-03-22T06:24:40;101185.03;;;14.84;100.00
40998;BME280;26740;45.944;12.480;2023-03-22T06:27:07;101179.06;;;14.22;100.00
40998;BME280;26740;45.944;12.480;2023-03-22T06:29:33;101181.13;;;13.62;100.00
40998;BME280;26740;45.944;12.480;2023-03-22T06:31:59;101184.19;;;13.33;100.00
40998;BME280;26740;45.944;12.480;2023-03-22T06:34:25;101182.19;;;13.06;100.00
40998;BME280;26740;45.944;12.480;2023-03-22T06:36:51;101186.94;;;13.06;100.00
40998;BME280;26740;45.944;12.480;2023-03-22T06:39:18;101184.53;;;12.93;100.00
40998;BME280;26740;45.944;12.480;2023-03-22T06:41:44;101184.22;;;12.89;100.00
40998;BME280;26740;45.944;12.480;2023-03-22T06:44:10;101184.41;;;12.82;100.00
40998;BME280;26740;45.944;12.480;2023-03-22T06:46:36;101186.22;;;12.71;100.00
40998;BME280;26740;45.944;12.480;2023-03-22T06:49:02;101188.66;;;13.12;100.00
40998;BME280;26740;45.944;12.480;2023-03-22T06:51:27;101197.75;;;14.16;100.00
40998;BME280;26740;45.944;12.480;2023-03-22T06:53:53;101192.13;;;15.12;100.00
40998;BME280;26740;45.944;12.480;2023-03-22T06:56:18;101203.78;;;16.08;100.00
40998;BME280;26740;45.944;12.480;2023-03-22T06:58:44;101204.78;;;16.74;100.00
40998;BME280;26740;45.944;12.480;2023-03-22T07:01:10;101191.53;;;17.50;100.00
40998;BME280;26740;45.944;12.480;2023-03-22T07:03:35;101198.13;;;17.69;100.00
40998;BME280;26740;45.944;12.480;2023-03-22T07:06:02;101199.88;;;17.60;100.00
40998;BME280;26740;45.944;12.480;2023-03-22T07:08:28;101203.72;;;18.09;100.00
40998;BME280;26740;45.944;12.480;2023-03-22T07:10:53;101208.34;;;18.53;100.00
40998;BME280;26740;45.944;12.480;2023-03-22T07:13:19;101199.13;;;18.76;100.00
40998;BME280;26740;45.944;12.480;2023-03-22T07:15:45;101213.50;;;18.99;100.00
40998;BME280;26740;45.944;12.480;2023-03-22T07:18:10;101215.16;;;19.24;100.00
40998;BME280;26740;45.944;12.480;2023-03-22T07:20:36;101208.69;;;19.62;100.00
40998;BME280;26740;45.944;12.480;2023-03-22T07:23:04;101214.78;;;19.69;100.00
40998;BME280;26740;45.944;12.480;2023-03-22T07:25:30;101217.16;;;19.81;100.00
40998;BME280;26740;45.944;12.480;2023-03-22T07:27:56;101217.53;;;19.36;100.00
40998;BME280;26740;45.944;12.480;2023-03-22T07:30:21;101220.22;;;18.74;100.00
40998;BME280;26740;45.944;12.480;2023-03-22T07:32:47;101213.75;;;19.03;100.00
40998;BME280;26740;45.944;12.480;2023-03-22T07:35:14;101214.75;;;19.12;96.53
40998;BME280;26740;45.944;12.480;2023-03-22T07:37:41;101209.78;;;19.04;98.48
40998;BME280;26740;45.944;12.480;2023-03-22T07:40:07;101209.84;;;20.32;94.65
40998;BME280;26740;45.944;12.480;2023-03-22T07:42:33;101221.81;;;20.84;92.02
40998;BME280;26740;45.944;12.480;2023-03-22T07:44:59;101222.31;;;21.28;86.89
40998;BME280;26740;45.944;12.480;2023-03-22T07:47:24;101222.03;;;21.15;79.59
40998;BME280;26740;45.944;12.480;2023-03-22T07:49:51;101215.16;;;19.62;81.94
40998;BME280;26740;45.944;12.480;2023-03-22T07:52:17;101222.81;;;20.46;84.46
40998;BME280;26740;45.944;12.480;2023-03-22T07:54:42;101224.13;;;20.82;84.82
40998;BME280;26740;45.944;12.480;2023-03-22T07:57:08;101224.06;;;21.88;78.24
40998;BME280;26740;45.944;12.480;2023-03-22T07:59:33;101235.41;;;21.51;75.71
40998;BME280;26740;45.944;12.480;2023-03-22T08:01:59;101243.84;;;20.54;75.14
40998;BME280;26740;45.944;12.480;2023-03-22T08:04:25;101248.19;;;21.07;74.03
40998;BME280;26740;45.944;12.480;2023-03-22T08:06:50;101238.34;;;20.30;78.98
40998;BME280;26740;45.944;12.480;2023-03-22T08:09:16;101241.44;;;19.58;83.74
40998;BME280;26740;45.944;12.480;2023-03-22T08:11:42;101238.84;;;18.70;91.25
40998;BME280;26740;45.944;12.480;2023-03-22T08:14:08;101234.25;;;19.27;86.54
40998;BME280;26740;45.944;12.480;2023-03-22T08:16:34;101233.44;;;19.46;84.51
40998;BME280;26740;45.944;12.480;2023-03-22T08:18:59;101238.03;;;20.32;81.61
40998;BME280;26740;45.944;12.480;2023-03-22T08:21:25;101234.53;;;19.88;82.33
40998;BME280;26740;45.944;12.480;2023-03-22T08:23:51;101237.94;;;19.85;85.12
40998;BME280;26740;45.944;12.480;2023-03-22T08:26:17;101246.63;;;19.88;82.31
40998;BME280;26740;45.944;12.480;2023-03-22T08:28:43;101240.97;;;19.50;84.24
40998;BME280;26740;45.944;12.480;2023-03-22T08:31:13;101246.72;;;21.24;73.84
40998;BME280;26740;45.944;12.480;2023-03-22T08:33:40;101246.31;;;21.81;74.95
40998;BME280;26740;45.944;12.480;2023-03-22T08:36:07;101252.78;;;21.31;74.49
40998;BME280;26740;45.944;12.480;2023-03-22T08:38:34;101243.78;;;21.79;71.80
40998;BME280;26740;45.944;12.480;2023-03-22T08:40:59;101247.03;;;22.09;73.35
40998;BME280;26740;45.944;12.480;2023-03-22T08:43:25;101247.94;;;22.18;72.06
40998;BME280;26740;45.944;12.480;2023-03-22T08:45:50;101240.38;;;22.27;70.28
40998;BME280;26740;45.944;12.480;2023-03-22T08:48:16;101251.84;;;21.08;73.08
40998;BME280;26740;45.944;12.480;2023-03-22T08:50:41;101246.06;;;21.54;72.64
40998;BME280;26740;45.944;12.480;2023-03-22T08:53:07;101243.22;;;21.40;73.48
40998;BME280;26740;45.944;12.480;2023-03-22T08:55:32;101242.00;;;22.06;69.30
40998;BME280;26740;45.944;12.480;2023-03-22T08:58:02;101245.63;;;21.98;71.55
40998;BME280;26740;45.944;12.480;2023-03-22T09:00:28;101244.06;;;20.58;73.87
40998;BME280;26740;45.944;12.480;2023-03-22T09:02:54;101247.00;;;20.80;74.58
40998;BME280;26740;45.944;12.480;2023-03-22T09:05:20;101245.63;;;22.20;67.82
40998;BME280;26740;45.944;12.480;2023-03-22T09:07:45;101245.22;;;23.30;65.38
40998;BME280;26740;45.944;12.480;2023-03-22T09:10:11;101247.03;;;22.94;64.46
40998;BME280;26740;45.944;12.480;2023-03-22T09:12:37;101247.88;;;23.43;67.00
40998;BME280;26740;45.944;12.480;2023-03-22T09:15:03;101244.06;;;22.59;70.38
40998;BME280;26740;45.944;12.480;2023-03-22T09:17:30;101242.00;;;22.06;69.37
40998;BME280;26740;45.944;12.480;2023-03-22T09:19:56;101245.31;;;21.63;66.08
40998;BME280;26740;45.944;12.480;2023-03-22T09:22:21;101245.22;;;21.26;67.29
40998;BME280;26740;45.944;12.480;2023-03-22T09:24:47;101244.31;;;22.04;67.60
40998;BME280;26740;45.944;12.480;2023-03-22T09:27:12;101237.59;;;22.67;62.20
40998;BME280;26740;45.944;12.480;2023-03-22T09:29:38;101242.00;;;24.79;56.75
40998;BME280;26740;45.944;12.480;2023-03-22T09:32:04;101243.34;;;25.71;51.13
40998;BME280;26740;45.944;12.480;2023-03-22T09:34:29;101243.09;;;25.34;53.49
40998;BME280;26740;45.944;12.480;2023-03-22T09:36:56;101230.47;;;24.11;58.47
40998;BME280;26740;45.944;12.480;2023-03-22T09:39:23;101240.19;;;23.26;59.91
40998;BME280;26740;45.944;12.480;2023-03-22T09:41:54;101224.03;;;22.47;62.81
40998;BME280;26740;45.944;12.480;2023-03-22T09:44:42;101231.34;;;22.25;60.76
40998;BME280;26740;45.944;12.480;2023-03-22T09:47:16;101234.63;;;24.05;57.43
40998;BME280;26740;45.944;12.480;2023-03-22T09:49:45;101231.69;;;25.05;53.29
40998;BME280;26740;45.944;12.480;2023-03-22T09:52:14;101225.56;;;24.38;58.58
40998;BME280;26740;45.944;12.480;2023-03-22T09:54:42;101225.72;;;23.28;57.87
40998;BME280;26740;45.944;12.480;2023-03-22T09:57:41;101230.44;;;24.29;59.79
40998;BME280;26740;45.944;12.480;2023-03-22T10:02:52;101226.47;;;23.95;60.58
40998;BME280;26740;45.944;12.480;2023-03-22T10:05:59;101222.97;;;22.43;58.53
40998;BME280;26740;45.944;12.480;2023-03-22T10:08:53;101219.59;;;24.22;57.55
40998;BME280;26740;45.944;12.480;2023-03-22T10:11:48;101213.44;;;24.02;54.53
40998;BME280;26740;45.944;12.480;2023-03-22T10:14:40;101223.53;;;24.47;51.28
40998;BME280;26740;45.944;12.480;2023-03-22T10:17:13;101212.09;;;24.09;59.19
40998;BME280;26740;45.944;12.480;2023-03-22T10:19:54;101218.00;;;25.37;51.14
40998;BME280;26740;45.944;12.480;2023-03-22T10:22:28;101218.81;;;26.55;56.15
40998;BME280;26740;45.944;12.480;2023-03-22T10:24:55;101225.69;;;27.77;49.06
40998;BME280;26740;45.944;12.480;2023-03-22T10:27:22;101222.81;;;26.08;52.47
40998;BME280;26740;45.944;12.480;2023-03-22T10:29:58;101230.06;;;24.95;51.29
40998;BME280;26740;45.944;12.480;2023-03-22T10:32:38;101220.53;;;26.80;50.75
40998;BME280;26740;45.944;12.480;2023-03-22T10:35:05;101218.34;;;26.53;52.41
40998;BME280;26740;45.944;12.480;2023-03-22T10:37:33;101214.00;;;26.67;46.54
40998;BME280;26740;45.944;12.480;2023-03-22T10:40:04;101217.69;;;27.05;44.68
40998;BME280;26740;45.944;12.480;2023-03-22T10:42:35;101220.03;;;27.65;45.12
40998;BME280;26740;45.944;12.480;2023-03-22T10:45:04;101215.81;;;27.09;43.08
40998;BME280;26740;45.944;12.480;2023-03-22T10:47:47;101210.84;;;26.15;43.92
40998;BME280;26740;45.944;12.480;2023-03-22T10:50:39;101209.97;;;26.81;45.94
40998;BME280;26740;45.944;12.480;2023-03-22T10:53:16;101213.22;;;25.20;49.31
40998;BME280;26740;45.944;12.480;2023-03-22T10:55:48;101207.75;;;25.44;46.38
40998;BME280;26740;45.944;12.480;2023-03-22T10:58:17;101202.50;;;24.95;50.08
40998;BME280;26740;45.944;12.480;2023-03-22T11:00:48;101211.28;;;25.11;53.52
40998;BME280;26740;45.944;12.480;2023-03-22T11:03:40;101199.81;;;25.29;49.54
40998;BME280;26740;45.944;12.480;2023-03-22T11:06:18;101199.53;;;24.92;50.23
40998;BME280;26740;45.944;12.480;2023-03-22T11:08:55;101196.00;;;25.25;51.97
40998;BME280;26740;45.944;12.480;2023-03-22T11:16:18;101185.53;;;23.35;52.63
40998;BME280;26740;45.944;12.480;2023-03-22T11:18:44;101183.56;;;23.88;53.89
40998;BME280;26740;45.944;12.480;2023-03-22T11:21:11;101172.91;;;23.76;56.02
40998;BME280;26740;45.944;12.480;2023-03-22T11:23:40;101177.41;;;23.85;53.14
40998;BME280;26740;45.944;12.480;2023-03-22T11:26:10;101171.22;;;24.01;53.44
40998;BME280;26740;45.944;12.480;2023-03-22T11:28:41;101171.72;;;23.59;53.49
40998;BME280;26740;45.944;12.480;2023-03-22T11:31:13;101168.94;;;22.93;58.42
40998;BME280;26740;45.944;12.480;2023-03-22T11:34:10;101166.03;;;22.76;59.89
40998;BME280;26740;45.944;12.480;2023-03-22T11:36:46;101159.88;;;22.33;60.12
40998;BME280;26740;45.944;12.480;2023-03-22T11:39:17;101165.63;;;22.51;57.20
40998;BME280;26740;45.944;12.480;2023-03-22T11:41:44;101165.28;;;22.52;57.76
40998;BME280;26740;45.944;12.480;2023-03-22T11:44:14;101155.56;;;22.36;58.10
40998;BME280;26740;45.944;12.480;2023-03-22T11:46:48;101157.59;;;22.44;61.92
40998;BME280;26740;45.944;12.480;2023-03-22T11:49:16;101155.06;;;22.43;57.94
40998;BME280;26740;45.944;12.480;2023-03-22T11:51:42;101145.53;;;23.71;52.13
40998;BME280;26740;45.944;12.480;2023-03-22T11:54:30;101152.19;;;23.93;54.01
40998;BME280;26740;45.944;12.480;2023-03-22T11:57:02;101139.69;;;23.33;55.52
40998;BME280;26740;45.944;12.480;2023-03-22T11:59:30;101141.50;;;22.62;57.33
40998;BME280;26740;45.944;12.480;2023-03-22T12:04:39;101129.09;;;22.41;61.89
40998;BME280;26740;45.944;12.480;2023-03-22T12:07:13;101127.41;;;22.80;58.25
40998;BME280;26740;45.944;12.480;2023-03-22T12:09:43;101129.22;;;22.67;55.51
40998;BME280;26740;45.944;12.480;2023-03-22T12:12:16;101119.47;;;22.99;61.58
40998;BME280;26740;45.944;12.480;2023-03-22T12:22:52;101117.47;;;22.42;59.18
40998;BME280;26740;45.944;12.480;2023-03-22T12:25:31;101111.69;;;22.25;56.67
40998;BME280;26740;45.944;12.480;2023-03-22T12:28:05;101115.63;;;22.46;59.11
40998;BME280;26740;45.944;12.480;2023-03-22T12:30:40;101112.09;;;22.32;56.94
40998;BME280;26740;45.944;12.480;2023-03-22T12:33:17;101104.31;;;22.95;56.14
40998;BME280;26740;45.944;12.480;2023-03-22T12:35:46;101100.03;;;23.41;57.95
40998;BME280;26740;45.944;12.480;2023-03-22T12:40:46;101105.50;;;23.12;54.43
40998;BME280;26740;45.944;12.480;2023-03-22T12:43:24;101100.16;;;22.44;50.78
40998;BME280;26740;45.944;12.480;2023-03-22T12:45:58;101094.94;;;22.28;57.44
40998;BME280;26740;45.944;12.480;2023-03-22T12:48:40;101100.25;;;22.70;54.94
40998;BME280;26740;45.944;12.480;2023-03-22T12:51:10;101090.31;;;22.99;56.13
40998;BME280;26740;45.944;12.480;2023-03-22T12:53:57;101095.03;;;23.12;56.00
40998;BME280;26740;45.944;12.480;2023-03-22T12:56:28;101084.63;;;22.90;52.92
40998;BME280;26740;45.944;12.480;2023-03-22T12:59:00;101085.94;;;22.66;54.51
40998;BME280;26740;45.944;12.480;2023-03-22T13:01:34;101082.81;;;22.85;55.03
40998;BME280;26740;45.944;12.480;2023-03-22T13:04:26;101078.38;;;23.37;53.93
40998;BME280;26740;45.944;12.480;2023-03-22T13:17:42;101064.16;;;23.63;50.85
40998;BME280;26740;45.944;12.480;2023-03-22T13:27:55;101054.09;;;22.69;51.44
40998;BME280;26740;45.944;12.480;2023-03-22T13:30:50;101050.28;;;22.65;54.18
40998;BME280;26740;45.944;12.480;2023-03-22T13:36:02;101043.16;;;23.64;51.40
40998;BME280;26740;45.944;12.480;2023-03-22T13:38:32;101031.66;;;22.99;54.25
40998;BME280;26740;45.944;12.480;2023-03-22T13:41:20;101041.50;;;22.93;49.93
40998;BME280;26740;45.944;12.480;2023-03-22T13:43:48;101039.88;;;23.09;52.89
40998;BME280;26740;45.944;12.480;2023-03-22T14:01:55;101037.81;;;22.66;50.92
40998;BME280;26740;45.944;12.480;2023-03-22T14:04:31;101037.41;;;22.42;53.19
40998;BME280;26740;45.944;12.480;2023-03-22T14:07:24;101039.09;;;22.51;52.45
40998;BME280;26740;45.944;12.480;2023-03-22T14:10:24;101034.47;;;22.15;54.42
40998;BME280;26740;45.944;12.480;2023-03-22T14:15:48;101026.13;;;22.59;52.32
40998;BME280;26740;45.944;12.480;2023-03-22T14:18:32;101028.53;;;23.27;51.45
40998;BME280;26740;45.944;12.480;2023-03-22T14:21:08;101021.53;;;22.98;46.53
40998;BME280;26740;45.944;12.480;2023-03-22T14:23:47;101022.31;;;22.64;50.71
40998;BME280;26740;45.944;12.480;2023-03-22T14:29:16;101016.50;;;22.11;48.27
40998;BME280;26740;45.944;12.480;2023-03-22T14:31:43;101011.88;;;21.84;52.07
40998;BME280;26740;45.944;12.480;2023-03-22T14:34:18;101007.56;;;21.87;52.55